Daio — JG5587 — position and weather

sailwx.info

Track history (hours):
 
Tides and Currents Weather Stations Pressure Air Temp Water Temp Dewpoint Dewpoint Depression Visibility Wind Speed Wind Dir Waves Ship Positions

Daio

Last reported at 2014-Jul-22 14:33 UTC. Time now 2014-Jul-22 15:28 UTC.
Position N 35°36' E 140°07'.

Length 36 m; draft 3.4 m.

Type: Tug. MMSI: 431003092.

Date/timePositionNaut miles runAvg speedWind from/ knotsBaromVisibWave heightAir tempDewpointWater temp
2014-Jul-22 14:33N 35°36' E 140°07'0 0.0
2014-Jul-22 13:33N 35°36' E 140°07'0 0.0
2014-Jul-22 12:33N 35°36' E 140°07'0 0.0
2014-Jul-22 11:33N 35°36' E 140°07'0 0.0
2014-Jul-22 10:33N 35°36' E 140°07'0 0.0
2014-Jul-22 09:33N 35°36' E 140°07'0 0.0
2014-Jul-22 08:33N 35°36' E 140°07'0 0.0
2014-Jul-22 07:33N 35°36' E 140°07'0 0.0
2014-Jul-22 06:33N 35°36' E 140°07'0 0.0
2014-Jul-22 05:33N 35°36' E 140°07'0 0.0
2014-Jul-22 04:33N 35°36' E 140°07'8 7.7
2014-Jul-22 03:33N 35°32' E 139°58'2 2.4
2014-Jul-22 02:33N 35°31' E 139°56'0 0.2
2014-Jul-22 01:33N 35°31' E 139°56'2 2.1
2014-Jul-22 00:33N 35°29' E 139°54'1110.8
2014-Jul-21 23:33N 35°35' E 140°05'2 0.1
2014-Jul-21 07:14N 35°36' E 140°07'0 0.0
2014-Jul-21 06:33N 35°36' E 140°07'0 0.0
2014-Jul-21 05:33N 35°36' E 140°07'0 0.0
2014-Jul-21 04:33N 35°36' E 140°07'0 0.0
2014-Jul-21 03:33N 35°36' E 140°07'0 0.0
2014-Jul-21 02:33N 35°36' E 140°07'0 0.0
2014-Jul-21 01:33N 35°36' E 140°07'8 8.4
2014-Jul-21 00:33N 35°30' E 139°59'2 2.2
2014-Jul-20 23:33N 35°28' E 139°58'10 9.7
2014-Jul-20 22:33N 35°36' E 140°06'1 0.7
2014-Jul-20 21:33N 35°36' E 140°07'0 0.0
2014-Jul-20 20:33N 35°36' E 140°07'0 0.0
2014-Jul-20 19:33N 35°36' E 140°07'0 0.0
2014-Jul-20 18:34N 35°36' E 140°07'0 0.0
2014-Jul-20 17:33N 35°36' E 140°07'0 0.0
2014-Jul-20 16:33N 35°36' E 140°07'0 0.0
2014-Jul-20 15:33N 35°36' E 140°07'0 0.0
2014-Jul-20 14:33N 35°36' E 140°07'0 0.0
2014-Jul-20 13:33N 35°36' E 140°07'0 0.0
2014-Jul-20 12:33N 35°36' E 140°07'0 0.0
2014-Jul-20 11:33N 35°36' E 140°07'0 0.0
2014-Jul-20 10:33N 35°36' E 140°07'0 0.0
2014-Jul-20 09:33N 35°36' E 140°07'0 0.0
2014-Jul-20 08:33N 35°36' E 140°07'0 0.0
2014-Jul-20 07:33N 35°36' E 140°07'0 0.0
2014-Jul-20 06:33N 35°36' E 140°07'5 4.9
2014-Jul-20 05:33N 35°32' E 140°03'1 0.6
2014-Jul-20 04:33N 35°32' E 140°03'0 0.0
2014-Jul-20 03:33N 35°32' E 140°03'0 0.0
2014-Jul-20 02:33N 35°32' E 140°03'5 5.1
2014-Jul-20 01:33N 35°28' E 139°58'1 0.8
2014-Jul-20 00:33N 35°29' E 139°57'1 1.4
2014-Jul-19 23:33N 35°30' E 139°56'9 9.2
2014-Jul-19 22:33N 35°35' E 140°05'2 1.7
2014-Jul-19 21:34N 35°36' E 140°07'0 0.0
2014-Jul-19 20:34N 35°36' E 140°07'0 0.0
2014-Jul-19 19:33N 35°36' E 140°07'0 0.0
2014-Jul-19 18:33N 35°36' E 140°07'0 0.0
2014-Jul-19 17:33N 35°36' E 140°07'0 0.0
2014-Jul-19 16:33N 35°36' E 140°07'0 0.0
2014-Jul-19 15:33N 35°36' E 140°07'0 0.0
2014-Jul-19 14:33N 35°36' E 140°07'0 0.0
2014-Jul-19 13:33N 35°36' E 140°07'0 0.0
2014-Jul-19 12:33N 35°36' E 140°07'0 0.0
2014-Jul-19 11:33N 35°36' E 140°07'0 0.0
2014-Jul-19 10:33N 35°36' E 140°07'0 0.0
2014-Jul-19 09:34N 35°36' E 140°07'0 0.0
2014-Jul-19 08:33N 35°36' E 140°07'0 0.0
2014-Jul-19 07:33N 35°36' E 140°07'1 0.9
2014-Jul-19 06:33N 35°35' E 140°07'2 2.1
2014-Jul-19 05:33N 35°35' E 140°04'0 0.0
2014-Jul-19 04:33N 35°35' E 140°04'5 5.2
2014-Jul-19 03:33N 35°32' E 139°59'2 2.5
2014-Jul-19 02:33N 35°31' E 139°56'1 0.9
2014-Jul-19 01:33N 35°30' E 139°55'1 1.4
2014-Jul-19 00:33N 35°31' E 139°57'10 9.6
2014-Jul-18 23:33N 35°36' E 140°07'0 0.0
2014-Jul-18 22:33N 35°36' E 140°07'0 0.0
2014-Jul-18 11:33N 35°36' E 140°07'2 1.6
2014-Jul-18 10:34N 35°36' E 140°05'3 3.1
2014-Jul-18 09:33N 35°34' E 140°02'0 0.0
2014-Jul-18 08:33N 35°34' E 140°02'5 4.6
2014-Jul-18 07:33N 35°36' E 140°07'1 1.0
2014-Jul-18 06:33N 35°35' E 140°06'3 2.8
2014-Jul-18 05:33N 35°35' E 140°03'0 0.3
2014-Jul-18 04:33N 35°35' E 140°03'0 0.0
2014-Jul-18 03:33N 35°35' E 140°03'2 2.3
2014-Jul-18 02:33N 35°36' E 140°05'2 1.5
2014-Jul-18 01:33N 35°35' E 140°06'1 0.5
2014-Jul-18 00:33N 35°36' E 140°07'0 0.0
2014-Jul-17 23:33N 35°36' E 140°07'2 1.5
2014-Jul-17 22:33N 35°36' E 140°05'7 7.2
2014-Jul-17 21:34N 35°32' E 139°57'7 7.1
2014-Jul-17 20:33N 35°36' E 140°05'2 0.1
2014-Jul-17 08:25N 35°36' E 140°07'910.9
2014-Jul-17 07:33N 35°29' E 139°59'1 1.1
2014-Jul-17 06:34N 35°28' E 139°58'2 2.1
2014-Jul-17 05:33N 35°30' E 139°56'2 2.3
2014-Jul-17 04:33N 35°29' E 139°59'0 0.0
2014-Jul-17 03:33N 35°29' E 139°59'0 0.0
2014-Jul-17 02:34N 35°29' E 139°59'9 9.1
2014-Jul-17 01:33N 35°35' E 140°06'1 1.0
2014-Jul-17 00:34N 35°36' E 140°05'1 0.7
2014-Jul-16 23:34N 35°35' E 140°04'1 0.5
2014-Jul-16 22:33N 35°35' E 140°05'2 1.5
2014-Jul-16 21:33N 35°35' E 140°03'3 3.2
2014-Jul-16 20:33N 35°36' E 140°07'0 0.0
2014-Jul-16 19:33N 35°36' E 140°07'0 0.0
2014-Jul-16 18:33N 35°36' E 140°07'0 0.0
2014-Jul-16 17:33N 35°36' E 140°07'0 0.0
2014-Jul-16 16:33N 35°36' E 140°07'0 0.0
2014-Jul-16 15:33N 35°36' E 140°07'0 0.0
2014-Jul-16 14:33N 35°36' E 140°07'0 0.0
2014-Jul-16 13:33N 35°36' E 140°07'0 0.0
2014-Jul-16 12:33N 35°36' E 140°07'0 0.0
2014-Jul-16 11:33N 35°36' E 140°07'0 0.3
2014-Jul-16 10:34N 35°36' E 140°07'9 9.4
2014-Jul-16 09:33N 35°28' E 139°59'3 3.4
2014-Jul-16 08:33N 35°31' E 139°56'0 0.0
2014-Jul-16 07:33N 35°31' E 139°56'2 1.7
2014-Jul-16 06:33N 35°30' E 139°54'6 6.2
2014-Jul-16 05:33N 35°33' E 140°01'6 5.6
2014-Jul-16 04:33N 35°36' E 140°07'0 0.0
2014-Jul-16 03:33N 35°36' E 140°07'0 0.0
2014-Jul-16 02:33N 35°36' E 140°07'0 0.0
2014-Jul-16 01:33N 35°36' E 140°07'0 0.0
2014-Jul-16 00:33N 35°36' E 140°07'1 1.4
2014-Jul-15 23:34N 35°36' E 140°05'2 1.6
2014-Jul-15 22:33N 35°35' E 140°03'3 3.0
2014-Jul-15 21:33N 35°34' E 140°00'6 5.8
2014-Jul-15 20:33N 35°36' E 140°07'4 0.3
2014-Jul-15 08:33N 35°34' E 140°03'4 4.1
2014-Jul-15 07:33N 35°30' E 140°01'0 0.4
2014-Jul-15 06:33N 35°30' E 140°01'5 4.6
2014-Jul-15 05:32N 35°33' E 139°56'1 1.3
2014-Jul-15 04:33N 35°33' E 139°58'0 0.0
2014-Jul-15 03:33N 35°33' E 139°58'0 0.0
2014-Jul-15 02:33N 35°33' E 139°58'4 3.6
2014-Jul-15 01:33N 35°29' E 139°60'0 0.4
2014-Jul-15 00:33N 35°29' E 140°00'3 2.8
2014-Jul-14 23:33N 35°32' E 139°59'5 5.1
2014-Jul-14 22:33N 35°33' E 140°05'5 4.9
2014-Jul-14 21:34N 35°30' E 139°60'8 8.0
2014-Jul-14 20:33N 35°36' E 140°07'0 0.0
2014-Jul-14 08:18N 35°36' E 140°07'810.2
2014-Jul-14 07:33N 35°30' E 140°01'0 0.0
2014-Jul-14 06:33N 35°30' E 140°01'1 1.4
2014-Jul-14 05:33N 35°31' E 140°00'6 6.0
2014-Jul-14 04:33N 35°36' E 140°05'1 0.5
2014-Jul-14 03:33N 35°35' E 140°04'0 0.0
2014-Jul-14 02:33N 35°35' E 140°04'5 4.9
2014-Jul-14 01:33N 35°31' E 140°02'2 2.4
2014-Jul-14 00:33N 35°30' E 139°59'8 8.3
2014-Jul-13 23:33N 35°36' E 140°07'0 0.0
2014-Jul-13 07:24N 35°36' E 140°07'0 0.0
2014-Jul-13 06:33N 35°36' E 140°07'2 1.7
2014-Jul-13 05:33N 35°36' E 140°05'0 0.0
2014-Jul-13 04:33N 35°36' E 140°05'6 5.5
2014-Jul-13 03:33N 35°33' E 139°59'1 1.5
2014-Jul-13 02:33N 35°33' E 140°01'6 5.6
2014-Jul-13 01:33N 35°36' E 140°07'0 0.0
2014-Jul-13 00:33N 35°36' E 140°07'0 0.0
2014-Jul-12 23:33N 35°36' E 140°07'1 1.1
2014-Jul-12 22:33N 35°36' E 140°06'5 5.4
2014-Jul-12 21:33N 35°33' E 139°60'5 4.6
2014-Jul-12 20:33N 35°36' E 140°04'2 2.1
2014-Jul-12 19:33N 35°36' E 140°07'0 0.0
2014-Jul-12 18:33N 35°36' E 140°07'0 0.0
2014-Jul-12 17:33N 35°36' E 140°07'0 0.0
2014-Jul-12 16:32N 35°36' E 140°07'0 0.0
2014-Jul-12 15:33N 35°36' E 140°07'0 0.0
2014-Jul-12 14:33N 35°36' E 140°07'  
Track history (hours):
 
Tides and Currents Weather Stations Pressure Air Temp Water Temp Dewpoint Dewpoint Depression Visibility Wind Speed Wind Dir Waves Ship Positions

Daio

Last reported at 2014-Jul-22 14:33 UTC. Time now 2014-Jul-22 15:28 UTC.
Position N 35°36' E 140°07'.

Length 36 m; draft 3.4 m.

Type: Tug. MMSI: 431003092.

Date/timePositionNaut miles runAvg speedWind from/ knotsBaromVisibWave heightAir tempDewpointWater temp
2014-Jul-22 14:33N 35°36' E 140°07'0 0.0
2014-Jul-22 13:33N 35°36' E 140°07'0 0.0
2014-Jul-22 12:33N 35°36' E 140°07'0 0.0
2014-Jul-22 11:33N 35°36' E 140°07'0 0.0
2014-Jul-22 10:33N 35°36' E 140°07'0 0.0
2014-Jul-22 09:33N 35°36' E 140°07'0 0.0
2014-Jul-22 08:33N 35°36' E 140°07'0 0.0
2014-Jul-22 07:33N 35°36' E 140°07'0 0.0
2014-Jul-22 06:33N 35°36' E 140°07'0 0.0
2014-Jul-22 05:33N 35°36' E 140°07'0 0.0
2014-Jul-22 04:33N 35°36' E 140°07'8 7.7
2014-Jul-22 03:33N 35°32' E 139°58'2 2.4
2014-Jul-22 02:33N 35°31' E 139°56'0 0.2
2014-Jul-22 01:33N 35°31' E 139°56'2 2.1
2014-Jul-22 00:33N 35°29' E 139°54'1110.8
2014-Jul-21 23:33N 35°35' E 140°05'2 0.1
2014-Jul-21 07:14N 35°36' E 140°07'0 0.0
2014-Jul-21 06:33N 35°36' E 140°07'0 0.0
2014-Jul-21 05:33N 35°36' E 140°07'0 0.0
2014-Jul-21 04:33N 35°36' E 140°07'0 0.0
2014-Jul-21 03:33N 35°36' E 140°07'0 0.0
2014-Jul-21 02:33N 35°36' E 140°07'0 0.0
2014-Jul-21 01:33N 35°36' E 140°07'8 8.4
2014-Jul-21 00:33N 35°30' E 139°59'2 2.2
2014-Jul-20 23:33N 35°28' E 139°58'10 9.7
2014-Jul-20 22:33N 35°36' E 140°06'1 0.7
2014-Jul-20 21:33N 35°36' E 140°07'0 0.0
2014-Jul-20 20:33N 35°36' E 140°07'0 0.0
2014-Jul-20 19:33N 35°36' E 140°07'0 0.0
2014-Jul-20 18:34N 35°36' E 140°07'0 0.0
2014-Jul-20 17:33N 35°36' E 140°07'0 0.0
2014-Jul-20 16:33N 35°36' E 140°07'0 0.0
2014-Jul-20 15:33N 35°36' E 140°07'0 0.0
2014-Jul-20 14:33N 35°36' E 140°07'0 0.0
2014-Jul-20 13:33N 35°36' E 140°07'0 0.0
2014-Jul-20 12:33N 35°36' E 140°07'0 0.0
2014-Jul-20 11:33N 35°36' E 140°07'0 0.0
2014-Jul-20 10:33N 35°36' E 140°07'0 0.0
2014-Jul-20 09:33N 35°36' E 140°07'0 0.0
2014-Jul-20 08:33N 35°36' E 140°07'0 0.0
2014-Jul-20 07:33N 35°36' E 140°07'0 0.0
2014-Jul-20 06:33N 35°36' E 140°07'5 4.9
2014-Jul-20 05:33N 35°32' E 140°03'1 0.6
2014-Jul-20 04:33N 35°32' E 140°03'0 0.0
2014-Jul-20 03:33N 35°32' E 140°03'0 0.0
2014-Jul-20 02:33N 35°32' E 140°03'5 5.1
2014-Jul-20 01:33N 35°28' E 139°58'1 0.8
2014-Jul-20 00:33N 35°29' E 139°57'1 1.4
2014-Jul-19 23:33N 35°30' E 139°56'9 9.2
2014-Jul-19 22:33N 35°35' E 140°05'2 1.7
2014-Jul-19 21:34N 35°36' E 140°07'0 0.0
2014-Jul-19 20:34N 35°36' E 140°07'0 0.0
2014-Jul-19 19:33N 35°36' E 140°07'0 0.0
2014-Jul-19 18:33N 35°36' E 140°07'0 0.0
2014-Jul-19 17:33N 35°36' E 140°07'0 0.0
2014-Jul-19 16:33N 35°36' E 140°07'0 0.0
2014-Jul-19 15:33N 35°36' E 140°07'0 0.0
2014-Jul-19 14:33N 35°36' E 140°07'0 0.0
2014-Jul-19 13:33N 35°36' E 140°07'0 0.0
2014-Jul-19 12:33N 35°36' E 140°07'0 0.0
2014-Jul-19 11:33N 35°36' E 140°07'0 0.0
2014-Jul-19 10:33N 35°36' E 140°07'0 0.0
2014-Jul-19 09:34N 35°36' E 140°07'0 0.0
2014-Jul-19 08:33N 35°36' E 140°07'0 0.0
2014-Jul-19 07:33N 35°36' E 140°07'1 0.9
2014-Jul-19 06:33N 35°35' E 140°07'2 2.1
2014-Jul-19 05:33N 35°35' E 140°04'0 0.0
2014-Jul-19 04:33N 35°35' E 140°04'5 5.2
2014-Jul-19 03:33N 35°32' E 139°59'2 2.5
2014-Jul-19 02:33N 35°31' E 139°56'1 0.9
2014-Jul-19 01:33N 35°30' E 139°55'1 1.4
2014-Jul-19 00:33N 35°31' E 139°57'10 9.6
2014-Jul-18 23:33N 35°36' E 140°07'0 0.0
2014-Jul-18 22:33N 35°36' E 140°07'0 0.0
2014-Jul-18 11:33N 35°36' E 140°07'2 1.6
2014-Jul-18 10:34N 35°36' E 140°05'3 3.1
2014-Jul-18 09:33N 35°34' E 140°02'0 0.0
2014-Jul-18 08:33N 35°34' E 140°02'5 4.6
2014-Jul-18 07:33N 35°36' E 140°07'1 1.0
2014-Jul-18 06:33N 35°35' E 140°06'3 2.8
2014-Jul-18 05:33N 35°35' E 140°03'0 0.3
2014-Jul-18 04:33N 35°35' E 140°03'0 0.0
2014-Jul-18 03:33N 35°35' E 140°03'2 2.3
2014-Jul-18 02:33N 35°36' E 140°05'2 1.5
2014-Jul-18 01:33N 35°35' E 140°06'1 0.5
2014-Jul-18 00:33N 35°36' E 140°07'0 0.0
2014-Jul-17 23:33N 35°36' E 140°07'2 1.5
2014-Jul-17 22:33N 35°36' E 140°05'7 7.2
2014-Jul-17 21:34N 35°32' E 139°57'7 7.1
2014-Jul-17 20:33N 35°36' E 140°05'2 0.1
2014-Jul-17 08:25N 35°36' E 140°07'910.9
2014-Jul-17 07:33N 35°29' E 139°59'1 1.1
2014-Jul-17 06:34N 35°28' E 139°58'2 2.1
2014-Jul-17 05:33N 35°30' E 139°56'2 2.3
2014-Jul-17 04:33N 35°29' E 139°59'0 0.0
2014-Jul-17 03:33N 35°29' E 139°59'0 0.0
2014-Jul-17 02:34N 35°29' E 139°59'9 9.1
2014-Jul-17 01:33N 35°35' E 140°06'1 1.0
2014-Jul-17 00:34N 35°36' E 140°05'1 0.7
2014-Jul-16 23:34N 35°35' E 140°04'1 0.5
2014-Jul-16 22:33N 35°35' E 140°05'2 1.5
2014-Jul-16 21:33N 35°35' E 140°03'3 3.2
2014-Jul-16 20:33N 35°36' E 140°07'0 0.0
2014-Jul-16 19:33N 35°36' E 140°07'0 0.0
2014-Jul-16 18:33N 35°36' E 140°07'0 0.0
2014-Jul-16 17:33N 35°36' E 140°07'0 0.0
2014-Jul-16 16:33N 35°36' E 140°07'0 0.0
2014-Jul-16 15:33N 35°36' E 140°07'0 0.0
2014-Jul-16 14:33N 35°36' E 140°07'0 0.0
2014-Jul-16 13:33N 35°36' E 140°07'0 0.0
2014-Jul-16 12:33N 35°36' E 140°07'0 0.0
2014-Jul-16 11:33N 35°36' E 140°07'0 0.3
2014-Jul-16 10:34N 35°36' E 140°07'9 9.4
2014-Jul-16 09:33N 35°28' E 139°59'3 3.4
2014-Jul-16 08:33N 35°31' E 139°56'0 0.0
2014-Jul-16 07:33N 35°31' E 139°56'2 1.7
2014-Jul-16 06:33N 35°30' E 139°54'6 6.2
2014-Jul-16 05:33N 35°33' E 140°01'6 5.6
2014-Jul-16 04:33N 35°36' E 140°07'0 0.0
2014-Jul-16 03:33N 35°36' E 140°07'0 0.0
2014-Jul-16 02:33N 35°36' E 140°07'0 0.0
2014-Jul-16 01:33N 35°36' E 140°07'0 0.0
2014-Jul-16 00:33N 35°36' E 140°07'1 1.4
2014-Jul-15 23:34N 35°36' E 140°05'2 1.6
2014-Jul-15 22:33N 35°35' E 140°03'3 3.0
2014-Jul-15 21:33N 35°34' E 140°00'6 5.8
2014-Jul-15 20:33N 35°36' E 140°07'4 0.3
2014-Jul-15 08:33N 35°34' E 140°03'4 4.1
2014-Jul-15 07:33N 35°30' E 140°01'0 0.4
2014-Jul-15 06:33N 35°30' E 140°01'5 4.6
2014-Jul-15 05:32N 35°33' E 139°56'1 1.3
2014-Jul-15 04:33N 35°33' E 139°58'0 0.0
2014-Jul-15 03:33N 35°33' E 139°58'0 0.0
2014-Jul-15 02:33N 35°33' E 139°58'4 3.6
2014-Jul-15 01:33N 35°29' E 139°60'0 0.4
2014-Jul-15 00:33N 35°29' E 140°00'3 2.8
2014-Jul-14 23:33N 35°32' E 139°59'5 5.1
2014-Jul-14 22:33N 35°33' E 140°05'5 4.9
2014-Jul-14 21:34N 35°30' E 139°60'8 8.0
2014-Jul-14 20:33N 35°36' E 140°07'0 0.0
2014-Jul-14 08:18N 35°36' E 140°07'810.2
2014-Jul-14 07:33N 35°30' E 140°01'0 0.0
2014-Jul-14 06:33N 35°30' E 140°01'1 1.4
2014-Jul-14 05:33N 35°31' E 140°00'6 6.0
2014-Jul-14 04:33N 35°36' E 140°05'1 0.5
2014-Jul-14 03:33N 35°35' E 140°04'0 0.0
2014-Jul-14 02:33N 35°35' E 140°04'5 4.9
2014-Jul-14 01:33N 35°31' E 140°02'2 2.4
2014-Jul-14 00:33N 35°30' E 139°59'8 8.3
2014-Jul-13 23:33N 35°36' E 140°07'0 0.0
2014-Jul-13 07:24N 35°36' E 140°07'0 0.0
2014-Jul-13 06:33N 35°36' E 140°07'2 1.7
2014-Jul-13 05:33N 35°36' E 140°05'0 0.0
2014-Jul-13 04:33N 35°36' E 140°05'6 5.5
2014-Jul-13 03:33N 35°33' E 139°59'1 1.5
2014-Jul-13 02:33N 35°33' E 140°01'6 5.6
2014-Jul-13 01:33N 35°36' E 140°07'0 0.0
2014-Jul-13 00:33N 35°36' E 140°07'0 0.0
2014-Jul-12 23:33N 35°36' E 140°07'1 1.1
2014-Jul-12 22:33N 35°36' E 140°06'5 5.4
2014-Jul-12 21:33N 35°33' E 139°60'5 4.6
2014-Jul-12 20:33N 35°36' E 140°04'2 2.1
2014-Jul-12 19:33N 35°36' E 140°07'0 0.0
2014-Jul-12 18:33N 35°36' E 140°07'0 0.0
2014-Jul-12 17:33N 35°36' E 140°07'0 0.0
2014-Jul-12 16:32N 35°36' E 140°07'0 0.0
2014-Jul-12 15:33N 35°36' E 140°07'0 0.0
2014-Jul-12 14:33N 35°36' E 140°07'  

Dump ship's entire track history